createdAt,value
2022-10-03T00:01:20.059Z,2.78
2022-10-03T00:04:06.199Z,0.93
2022-10-03T00:06:36.301Z,2.17
2022-10-03T00:09:15.278Z,2.38
2022-10-03T00:11:45.155Z,2.40
2022-10-03T00:14:21.658Z,5.50
2022-10-03T00:17:22.041Z,2.28
2022-10-03T00:19:54.955Z,1.55
2022-10-03T00:22:29.270Z,0.57
2022-10-03T00:25:22.181Z,1.88
2022-10-03T00:28:27.220Z,3.70
2022-10-03T00:30:54.320Z,2.75
2022-10-03T00:33:31.192Z,1.80
2022-10-03T00:36:19.470Z,1.95
2022-10-03T00:39:17.132Z,1.30
2022-10-03T00:42:19.284Z,1.65
2022-10-03T00:45:23.954Z,0.60
2022-10-03T00:48:18.801Z,2.13
2022-10-03T00:50:56.822Z,0.47
2022-10-03T00:53:45.540Z,2.88
2022-10-03T00:56:15.834Z,1.33
2022-10-03T00:59:03.161Z,2.03
2022-10-03T01:01:38.707Z,1.05
2022-10-03T01:04:34.962Z,0.82
2022-10-03T01:09:41.421Z,0.68
2022-10-03T01:12:32.290Z,1.25
2022-10-03T01:15:20.648Z,2.22
2022-10-03T01:18:20.363Z,2.47
2022-10-03T01:20:53.318Z,0.40
2022-10-03T01:23:31.466Z,1.50
2022-10-03T01:26:36.179Z,2.20
2022-10-03T01:29:39.325Z,0.73
2022-10-03T01:32:14.207Z,2.33
2022-10-03T01:35:10.267Z,1.15
2022-10-03T01:38:09.379Z,1.45
2022-10-03T01:41:04.448Z,0.68
2022-10-03T01:44:00.829Z,0.45
2022-10-03T01:46:39.607Z,1.92
2022-10-03T01:49:38.454Z,1.75
2022-10-03T01:52:46.057Z,2.75
2022-10-03T01:55:23.990Z,1.73
2022-10-03T01:58:01.718Z,1.73
2022-10-03T02:00:47.433Z,1.88
2022-10-03T02:06:06.836Z,1.05
2022-10-03T02:09:01.014Z,0.10
2022-10-03T02:11:40.494Z,1.35
2022-10-03T02:14:24.000Z,1.45
2022-10-03T02:17:00.170Z,3.17
2022-10-03T02:19:45.853Z,0.30
2022-10-03T02:22:30.085Z,1.17
2022-10-03T02:25:16.477Z,1.50
2022-10-03T02:28:06.560Z,0.52
2022-10-03T02:30:39.969Z,0.50
2022-10-03T02:33:47.812Z,0.57
2022-10-03T02:36:52.949Z,0.20
2022-10-03T02:39:35.645Z,0.20
2022-10-03T02:42:25.230Z,0.60
2022-10-03T02:45:13.733Z,1.75
2022-10-03T02:47:56.896Z,1.38
2022-10-03T02:50:39.329Z,0.40
2022-10-03T02:53:18.298Z,1.95
2022-10-03T02:56:26.759Z,1.13
2022-10-03T02:59:33.338Z,0.73
2022-10-03T03:05:13.990Z,0.40
2022-10-03T03:08:05.649Z,0.35
2022-10-03T03:11:19.360Z,0.40
2022-10-03T03:13:55.632Z,0.95
2022-10-03T03:16:56.556Z,2.38
2022-10-03T03:20:06.086Z,1.45
2022-10-03T03:22:36.176Z,2.08
2022-10-03T03:25:45.165Z,0.68
2022-10-03T03:28:57.673Z,2.63
2022-10-03T03:31:45.297Z,0.85
2022-10-03T03:34:27.506Z,1.70
2022-10-03T03:37:09.046Z,0.77
2022-10-03T03:40:12.942Z,1.00
2022-10-03T03:42:55.548Z,1.73
2022-10-03T03:45:40.558Z,1.48
2022-10-03T03:48:26.135Z,1.08
2022-10-03T03:51:33.317Z,0.35
2022-10-03T03:54:32.995Z,0.80
2022-10-03T03:57:03.040Z,1.52
2022-10-03T03:59:33.143Z,2.78
2022-10-03T04:02:18.609Z,0.93
2022-10-03T04:04:52.204Z,0.77
2022-10-03T04:07:30.928Z,3.13
2022-10-03T04:10:38.425Z,1.13
2022-10-03T04:13:10.172Z,1.85
2022-10-03T04:16:11.499Z,2.03
2022-10-03T04:19:06.946Z,0.73
2022-10-03T04:21:58.864Z,0.30
2022-10-03T04:24:53.153Z,1.02
2022-10-03T04:27:33.923Z,1.80
2022-10-03T04:30:19.124Z,2.75
2022-10-03T04:33:25.546Z,0.43
2022-10-03T04:36:20.983Z,2.40
2022-10-03T04:38:53.866Z,0.73
2022-10-03T04:41:49.836Z,0.55
2022-10-03T04:46:58.201Z,0.60
2022-10-03T04:49:32.682Z,1.25
2022-10-03T04:52:14.681Z,1.48
2022-10-03T04:55:12.597Z,1.98
2022-10-03T04:58:04.872Z,0.40
2022-10-03T05:00:58.619Z,0.95
2022-10-03T05:03:43.594Z,0.90
2022-10-03T05:06:25.748Z,0.60
2022-10-03T05:09:23.749Z,0.47
2022-10-03T05:11:59.749Z,1.17
2022-10-03T05:14:31.537Z,0.50
2022-10-03T05:17:34.104Z,1.58
2022-10-03T05:20:31.681Z,0.80
2022-10-03T05:23:04.732Z,1.05
2022-10-03T05:26:32.257Z,0.43
2022-10-03T05:29:06.911Z,0.85
2022-10-03T05:31:49.982Z,0.20
2022-10-03T05:34:36.677Z,0.20
2022-10-03T05:37:06.621Z,0.25
2022-10-03T05:39:53.948Z,0.75
2022-10-03T05:42:42.393Z,1.88
2022-10-03T05:45:31.893Z,1.40
2022-10-03T05:48:14.185Z,3.50
2022-10-03T05:50:59.406Z,2.58
2022-10-03T05:53:32.652Z,1.20
2022-10-03T05:56:18.042Z,1.88
2022-10-03T05:58:54.479Z,1.10
2022-10-03T06:01:42.792Z,1.35
2022-10-03T06:04:16.112Z,2.80
2022-10-03T06:07:06.083Z,1.92
2022-10-03T06:10:17.938Z,2.30
2022-10-03T06:12:51.434Z,1.33
2022-10-03T06:15:46.127Z,0.50
2022-10-03T06:18:23.237Z,0.85
2022-10-03T06:21:12.871Z,0.80
2022-10-03T06:24:11.271Z,2.33
2022-10-03T06:27:00.005Z,0.90
2022-10-03T06:29:46.063Z,2.25
2022-10-03T06:32:22.764Z,0.43
2022-10-03T06:35:23.934Z,1.05
2022-10-03T06:38:11.887Z,0.80
2022-10-03T06:40:50.959Z,2.83
2022-10-03T06:43:51.352Z,2.17
2022-10-03T06:46:40.592Z,3.85
2022-10-03T06:49:27.818Z,1.75
2022-10-03T06:52:17.199Z,0.70
2022-10-03T06:55:06.001Z,1.08
2022-10-03T06:58:12.462Z,2.13
2022-10-03T07:01:00.957Z,3.20
2022-10-03T07:04:01.973Z,4.40
2022-10-03T07:06:44.214Z,1.70
2022-10-03T07:09:23.568Z,1.88
2022-10-03T07:12:18.143Z,1.60
2022-10-03T07:15:04.362Z,0.85
2022-10-03T07:18:01.229Z,1.90
2022-10-03T07:21:05.907Z,3.47
2022-10-03T07:23:54.470Z,0.52
2022-10-03T07:26:48.039Z,0.63
2022-10-03T07:30:04.838Z,1.45
2022-10-03T07:32:55.600Z,4.78
2022-10-03T07:36:12.235Z,0.95
2022-10-03T07:39:00.915Z,2.47
2022-10-03T07:42:00.290Z,0.88
2022-10-03T07:44:50.195Z,1.58
2022-10-03T07:47:54.311Z,2.78
2022-10-03T07:50:40.306Z,1.83
2022-10-03T07:53:22.432Z,1.02
2022-10-03T07:56:14.423Z,0.60
2022-10-03T07:58:52.238Z,2.58
2022-10-03T08:01:36.418Z,0.95
2022-10-03T08:04:31.810Z,1.33
2022-10-03T08:07:16.974Z,2.22
2022-10-03T08:09:59.291Z,2.30
2022-10-03T08:12:47.943Z,0.60
2022-10-03T08:16:25.591Z,1.75
2022-10-03T08:19:18.795Z,1.77
2022-10-03T08:22:02.039Z,1.42
2022-10-03T08:24:42.642Z,3.20
2022-10-03T08:27:29.416Z,3.15
2022-10-03T08:30:02.535Z,1.55
2022-10-03T08:32:48.419Z,3.25
2022-10-03T08:35:38.849Z,1.27
2022-10-03T08:38:23.915Z,2.45
2022-10-03T08:40:57.393Z,0.93
2022-10-03T08:43:43.383Z,2.63
2022-10-03T08:46:33.275Z,0.70
2022-10-03T08:49:30.941Z,3.08
2022-10-03T08:52:26.207Z,0.65
2022-10-03T08:54:59.907Z,3.63
2022-10-03T08:58:09.169Z,1.77
2022-10-03T09:01:03.910Z,2.10
2022-10-03T09:03:52.612Z,3.55
2022-10-03T09:06:30.979Z,2.08
2022-10-03T09:09:20.151Z,1.88
2022-10-03T09:12:09.180Z,0.98
2022-10-03T09:15:05.796Z,2.58
2022-10-03T09:18:07.685Z,3.33
2022-10-03T09:21:01.238Z,1.55
2022-10-03T09:24:06.934Z,2.22
2022-10-03T09:26:54.763Z,3.37
2022-10-03T09:29:37.994Z,0.95
2022-10-03T09:32:23.696Z,1.35
2022-10-03T09:38:22.669Z,5.25
2022-10-03T09:41:28.692Z,1.27
2022-10-03T09:44:33.674Z,0.55
2022-10-03T09:47:49.116Z,2.45
2022-10-03T09:50:28.798Z,1.52
2022-10-03T09:53:20.267Z,1.35
2022-10-03T09:56:26.589Z,7.97
2022-10-03T09:59:08.796Z,1.90
2022-10-03T10:02:15.634Z,4.15
2022-10-03T10:05:07.500Z,1.23
2022-10-03T10:07:56.412Z,3.40
2022-10-03T10:10:58.117Z,2.83
2022-10-03T10:14:07.588Z,4.95
2022-10-03T10:17:00.491Z,3.08
2022-10-03T10:19:57.168Z,1.65
2022-10-03T10:22:27.358Z,2.72
2022-10-03T10:25:25.132Z,0.90
2022-10-03T10:28:05.219Z,3.67
2022-10-03T10:30:51.115Z,1.08
2022-10-03T10:33:22.043Z,1.63
2022-10-03T10:36:07.552Z,0.80
2022-10-03T10:41:22.976Z,4.57
2022-10-03T10:44:33.022Z,1.85
2022-10-03T10:47:18.136Z,3.55
2022-10-03T10:50:17.564Z,0.98
2022-10-03T10:52:53.503Z,1.80
2022-10-03T10:55:46.269Z,1.50
2022-10-03T10:58:21.678Z,1.55
2022-10-03T11:01:12.793Z,2.70
2022-10-03T11:03:57.669Z,2.00
2022-10-03T11:06:37.241Z,0.60
2022-10-03T11:09:42.709Z,1.70
2022-10-03T11:12:21.828Z,2.95
2022-10-03T11:15:06.752Z,0.80
2022-10-03T11:18:08.504Z,2.78
2022-10-03T11:20:57.490Z,1.58
2022-10-03T11:23:49.624Z,0.75
2022-10-03T11:27:07.203Z,2.67
2022-10-03T11:30:08.088Z,2.80
2022-10-03T11:32:43.933Z,1.98
2022-10-03T11:35:43.146Z,2.15
2022-10-03T11:38:29.338Z,1.38
2022-10-03T11:41:10.339Z,1.20
2022-10-03T11:44:14.147Z,1.83
2022-10-03T11:46:51.702Z,0.75
2022-10-03T11:49:39.805Z,1.90
2022-10-03T11:52:31.827Z,2.67
2022-10-03T11:55:25.561Z,1.40
2022-10-03T11:58:24.942Z,2.30
2022-10-03T12:01:24.615Z,1.38
2022-10-03T12:04:03.763Z,4.97
2022-10-03T12:06:55.455Z,1.80
2022-10-03T12:09:29.765Z,3.67
2022-10-03T12:12:05.724Z,2.20
2022-10-03T12:14:47.528Z,2.95
2022-10-03T12:17:44.565Z,1.58
2022-10-03T12:20:23.997Z,3.42
2022-10-03T12:23:15.491Z,2.22
2022-10-03T12:25:46.222Z,2.67
2022-10-03T12:28:48.643Z,2.20
2022-10-03T12:31:29.242Z,3.15
2022-10-03T12:34:33.027Z,2.22
2022-10-03T12:37:44.696Z,2.15
2022-10-03T12:40:26.141Z,3.28
2022-10-03T12:43:17.749Z,3.42
2022-10-03T12:46:12.538Z,3.78
2022-10-03T12:48:49.199Z,3.92
2022-10-03T12:51:16.467Z,5.70
2022-10-03T12:53:59.902Z,3.72
2022-10-03T12:56:39.209Z,5.30
2022-10-03T12:59:42.368Z,4.18
2022-10-03T13:02:21.691Z,1.65
2022-10-03T13:04:54.868Z,3.83
2022-10-03T13:07:52.520Z,5.22
2022-10-03T13:10:38.497Z,2.30
2022-10-03T13:13:29.836Z,2.22
2022-10-03T13:16:16.551Z,2.17
2022-10-03T13:18:52.898Z,3.47
2022-10-03T13:21:46.527Z,5.60
2022-10-03T13:24:39.811Z,5.65
2022-10-03T13:27:26.345Z,3.47
2022-10-03T13:30:12.000Z,3.13
2022-10-03T13:35:35.779Z,5.43
2022-10-03T13:38:19.004Z,7.68
2022-10-03T13:40:57.498Z,5.30
2022-10-03T13:43:35.789Z,5.15
2022-10-03T13:46:15.209Z,3.97
2022-10-03T13:48:50.274Z,4.00
2022-10-03T13:51:47.655Z,6.25
2022-10-03T13:54:39.493Z,13.80
2022-10-03T13:57:23.540Z,4.53
2022-10-03T14:00:09.742Z,4.28
2022-10-03T14:03:05.106Z,5.28
2022-10-03T14:05:55.807Z,6.32
2022-10-03T14:08:32.070Z,2.42
2022-10-03T14:11:57.769Z,5.10
2022-10-03T14:14:36.925Z,5.90
2022-10-03T14:17:29.122Z,8.52
2022-10-03T14:20:13.986Z,8.40
2022-10-03T14:22:56.996Z,6.33
2022-10-03T14:25:30.100Z,4.20
2022-10-03T14:28:10.442Z,6.13
2022-10-03T14:31:07.394Z,6.32
2022-10-03T14:33:40.184Z,7.40
2022-10-03T14:36:47.436Z,6.68
2022-10-03T14:39:39.104Z,4.82
2022-10-03T14:42:26.240Z,5.20
2022-10-03T14:45:03.832Z,6.63
2022-10-03T14:47:46.614Z,5.60
2022-10-03T14:50:22.173Z,6.20
2022-10-03T14:53:02.749Z,6.45
2022-10-03T14:55:46.090Z,9.60
2022-10-03T14:58:22.238Z,6.63
2022-10-03T15:00:55.558Z,3.85
2022-10-03T15:03:33.810Z,6.93
2022-10-03T15:06:10.669Z,8.50
2022-10-03T15:08:44.843Z,6.22
2022-10-03T15:11:15.362Z,2.97
2022-10-03T15:13:55.700Z,6.97
2022-10-03T15:16:24.742Z,6.00
2022-10-03T15:19:07.306Z,11.02
2022-10-03T15:21:35.215Z,6.45
2022-10-03T15:24:08.108Z,4.53
2022-10-03T15:26:37.587Z,12.90
2022-10-03T15:29:06.921Z,7.85
2022-10-03T15:31:48.676Z,6.38
2022-10-03T15:34:25.490Z,10.35
2022-10-03T15:37:01.648Z,4.38
2022-10-03T15:39:38.052Z,9.85
2022-10-03T15:42:29.262Z,6.60
2022-10-03T15:45:01.862Z,6.18
2022-10-03T15:47:32.461Z,5.93
2022-10-03T15:50:24.714Z,9.65
2022-10-03T15:53:12.453Z,6.95
2022-10-03T15:56:00.134Z,6.45
2022-10-03T15:58:34.726Z,9.23
2022-10-03T16:01:18.778Z,8.80
2022-10-03T16:03:50.179Z,11.35
2022-10-03T16:06:36.061Z,8.00
2022-10-03T16:09:19.712Z,5.15
2022-10-03T16:12:24.331Z,7.07
2022-10-03T16:15:13.970Z,5.68
2022-10-03T16:17:53.146Z,5.28
2022-10-03T16:20:26.237Z,5.28
2022-10-03T16:22:57.391Z,5.55
2022-10-03T16:25:52.724Z,10.05
2022-10-03T16:28:24.343Z,9.00
2022-10-03T16:31:03.187Z,6.05
2022-10-03T16:33:38.426Z,5.45
2022-10-03T16:36:10.698Z,6.97
2022-10-03T16:38:52.727Z,7.53
2022-10-03T16:41:26.839Z,6.32
2022-10-03T16:43:57.021Z,6.80
2022-10-03T16:46:25.298Z,8.30
2022-10-03T16:49:14.875Z,10.27
2022-10-03T16:51:50.016Z,10.38
2022-10-03T16:54:20.249Z,10.18
2022-10-03T16:56:59.906Z,6.80
2022-10-03T16:59:29.995Z,10.40
2022-10-03T17:02:03.957Z,11.65
2022-10-03T17:04:31.753Z,7.55
2022-10-03T17:07:22.425Z,4.65
2022-10-03T17:09:51.602Z,7.03
2022-10-03T17:12:32.394Z,6.88
2022-10-03T17:15:26.273Z,8.20
2022-10-03T17:18:02.814Z,5.22
2022-10-03T17:20:39.148Z,3.85
2022-10-03T17:23:16.149Z,7.32
2022-10-03T17:25:49.668Z,6.95
2022-10-03T17:28:35.099Z,9.10
2022-10-03T17:31:06.322Z,7.32
2022-10-03T17:33:36.227Z,11.23
2022-10-03T17:36:15.598Z,9.85
2022-10-03T17:39:00.920Z,6.70
2022-10-03T17:41:44.401Z,8.13
2022-10-03T17:44:44.038Z,9.23
2022-10-03T17:47:37.292Z,11.23
2022-10-03T17:50:18.444Z,8.00
2022-10-03T17:52:47.853Z,7.35
2022-10-03T17:55:28.230Z,9.80
2022-10-03T17:57:59.232Z,5.82
2022-10-03T18:00:58.317Z,11.30
2022-10-03T18:03:32.415Z,8.75
2022-10-03T18:06:20.649Z,4.93
2022-10-03T18:08:50.787Z,10.20
2022-10-03T18:11:27.241Z,7.70
2022-10-03T18:14:29.457Z,7.28
2022-10-03T18:17:24.575Z,17.02
2022-10-03T18:20:26.284Z,8.63
2022-10-03T18:23:01.385Z,9.98
2022-10-03T18:26:19.102Z,6.30
2022-10-03T18:29:04.042Z,6.88
2022-10-03T18:31:35.343Z,8.25
2022-10-03T18:34:13.720Z,9.52
2022-10-03T18:36:48.146Z,7.63
2022-10-03T18:39:18.790Z,7.15
2022-10-03T18:41:55.737Z,7.65
2022-10-03T18:44:24.359Z,6.82
2022-10-03T18:47:08.220Z,6.75
2022-10-03T18:49:39.728Z,9.23
2022-10-03T18:52:16.559Z,8.10
2022-10-03T18:54:58.345Z,13.30
2022-10-03T18:57:43.086Z,11.38
2022-10-03T19:00:10.166Z,10.93
2022-10-03T19:02:49.411Z,8.27
2022-10-03T19:05:24.965Z,8.68
2022-10-03T19:08:02.955Z,11.20
2022-10-03T19:10:39.186Z,8.20
2022-10-03T19:13:29.673Z,11.32
2022-10-03T19:16:20.290Z,5.20
2022-10-03T19:18:47.376Z,8.40
2022-10-03T19:21:21.040Z,7.75
2022-10-03T19:24:30.581Z,8.18
2022-10-03T19:27:13.991Z,7.93
2022-10-03T19:29:56.892Z,9.25
2022-10-03T19:33:01.019Z,6.07
2022-10-03T19:35:29.768Z,5.95
2022-10-03T19:38:01.121Z,7.72
2022-10-03T19:40:38.549Z,6.72
2022-10-03T19:43:17.545Z,5.93
2022-10-03T19:46:16.364Z,9.80
2022-10-03T19:49:06.546Z,8.27
2022-10-03T19:51:34.051Z,6.90
2022-10-03T19:54:03.282Z,6.05
2022-10-03T19:56:34.916Z,4.50
2022-10-03T19:59:06.671Z,9.55
2022-10-03T20:01:48.745Z,12.57
2022-10-03T20:04:20.116Z,9.18
2022-10-03T20:06:50.091Z,7.45
2022-10-03T20:09:25.215Z,6.68
2022-10-03T20:12:08.925Z,8.70
2022-10-03T20:14:40.797Z,16.42
2022-10-03T20:17:24.585Z,13.30
2022-10-03T20:20:04.711Z,7.82
2022-10-03T20:22:36.550Z,11.60
2022-10-03T20:25:19.789Z,7.43
2022-10-03T20:27:53.510Z,5.95
2022-10-03T20:30:33.650Z,8.27
2022-10-03T20:33:00.825Z,11.30
2022-10-03T20:35:42.546Z,12.50
2022-10-03T20:38:22.430Z,9.13
2022-10-03T20:41:19.936Z,7.85
2022-10-03T20:44:03.923Z,8.02
2022-10-03T20:46:59.915Z,4.55
2022-10-03T20:49:34.089Z,5.80
2022-10-03T20:52:07.493Z,6.55
2022-10-03T20:54:47.682Z,14.18
2022-10-03T20:57:18.295Z,12.75
2022-10-03T20:59:47.326Z,7.85
2022-10-03T21:02:14.356Z,13.60
2022-10-03T21:05:13.563Z,17.77
2022-10-03T21:07:47.543Z,13.40
2022-10-03T21:10:26.153Z,9.75
2022-10-03T21:12:58.144Z,14.30
2022-10-03T21:15:29.951Z,11.07
2022-10-03T21:17:58.285Z,20.15
2022-10-03T21:20:35.775Z,10.50
2022-10-03T21:23:12.412Z,10.80
2022-10-03T21:25:42.787Z,9.82
2022-10-03T21:28:29.593Z,9.32
2022-10-03T21:31:21.593Z,8.02
2022-10-03T21:34:27.151Z,10.55
2022-10-03T21:37:19.603Z,5.82
2022-10-03T21:40:11.381Z,9.70
2022-10-03T21:43:11.981Z,16.90
2022-10-03T21:46:11.340Z,10.68
2022-10-03T21:48:54.929Z,14.38
2022-10-03T21:51:27.257Z,9.88
2022-10-03T21:54:13.051Z,11.95
2022-10-03T22:00:08.760Z,10.18
2022-10-03T22:02:53.642Z,11.45
2022-10-03T22:05:39.398Z,10.13
2022-10-03T22:10:58.112Z,8.93
2022-10-03T22:13:28.704Z,7.45
2022-10-03T22:16:07.019Z,7.28
2022-10-03T22:19:04.450Z,9.35
2022-10-03T22:21:51.905Z,3.75
2022-10-03T22:24:39.223Z,5.90
2022-10-03T22:27:28.733Z,7.43
2022-10-03T22:30:21.570Z,5.25
2022-10-03T22:33:09.298Z,12.43
2022-10-03T22:35:50.802Z,7.95
2022-10-03T22:38:22.555Z,6.88
2022-10-03T22:40:51.345Z,4.10
2022-10-03T22:43:19.468Z,8.23
2022-10-03T22:45:49.582Z,5.15
2022-10-03T22:48:31.241Z,6.32
2022-10-03T22:50:59.966Z,8.30
2022-10-03T22:53:32.279Z,6.97
2022-10-03T22:56:01.683Z,7.43
2022-10-03T22:58:30.746Z,8.90
2022-10-03T23:01:05.833Z,7.75
2022-10-03T23:03:35.606Z,5.40
2022-10-03T23:06:21.593Z,5.68
2022-10-03T23:09:13.646Z,8.38
2022-10-03T23:11:44.034Z,7.20
2022-10-03T23:14:33.826Z,5.20
2022-10-03T23:17:23.582Z,7.70
2022-10-03T23:19:59.408Z,3.38
2022-10-03T23:22:29.928Z,7.03
2022-10-03T23:25:05.968Z,12.13
2022-10-03T23:28:01.501Z,5.68
2022-10-03T23:30:34.726Z,5.00
2022-10-03T23:33:02.157Z,5.78
2022-10-03T23:35:39.101Z,8.35
2022-10-03T23:38:32.085Z,6.15
2022-10-03T23:41:12.948Z,5.60
2022-10-03T23:43:57.053Z,4.63
2022-10-03T23:46:27.884Z,4.50
2022-10-03T23:48:56.620Z,11.35
2022-10-03T23:51:33.759Z,5.93
2022-10-03T23:54:05.331Z,8.40
2022-10-03T23:56:41.377Z,8.00
2022-10-03T23:59:24.092Z,3.50
